sensor_id;sensor_type;location;lat;lon;timestamp;temperature;humidity
9800;DHT22;4939;52.00085300;4.17406100;2023-02-04T00:00:52;7.90;99.90
9800;DHT22;4939;52.00085300;4.17406100;2023-02-04T00:03:18;7.90;99.90
9800;DHT22;4939;52.00085300;4.17406100;2023-02-04T00:05:43;7.90;99.90
9800;DHT22;4939;52.00085300;4.17406100;2023-02-04T00:08:09;7.90;99.90
9800;DHT22;4939;52.00085300;4.17406100;2023-02-04T00:10:36;7.90;99.90
9800;DHT22;4939;52.00085300;4.17406100;2023-02-04T00:13:02;7.90;99.90
9800;DHT22;4939;52.00085300;4.17406100;2023-02-04T00:15:28;7.90;99.90
9800;DHT22;4939;52.00085300;4.17406100;2023-02-04T00:17:54;7.90;99.90
9800;DHT22;4939;52.00085300;4.17406100;2023-02-04T00:20:20;7.80;99.90
9800;DHT22;4939;52.00085300;4.17406100;2023-02-04T00:22:45;7.90;99.90
9800;DHT22;4939;52.00085300;4.17406100;2023-02-04T00:25:11;7.80;99.90
9800;DHT22;4939;52.00085300;4.17406100;2023-02-04T00:27:37;7.80;99.90
9800;DHT22;4939;52.00085300;4.17406100;2023-02-04T00:30:04;7.90;99.90
9800;DHT22;4939;52.00085300;4.17406100;2023-02-04T00:32:30;7.90;99.90
9800;DHT22;4939;52.00085300;4.17406100;2023-02-04T00:34:56;7.90;99.90
9800;DHT22;4939;52.00085300;4.17406100;2023-02-04T00:37:22;7.90;99.90
9800;DHT22;4939;52.00085300;4.17406100;2023-02-04T00:39:47;7.90;99.90
9800;DHT22;4939;52.00085300;4.17406100;2023-02-04T00:42:13;7.90;99.90
9800;DHT22;4939;52.00085300;4.17406100;2023-02-04T00:44:39;7.90;99.90
9800;DHT22;4939;52.00085300;4.17406100;2023-02-04T00:47:04;7.90;99.90
9800;DHT22;4939;52.00085300;4.17406100;2023-02-04T00:49:32;7.90;99.90
9800;DHT22;4939;52.00085300;4.17406100;2023-02-04T00:51:58;7.90;99.90
9800;DHT22;4939;52.00085300;4.17406100;2023-02-04T00:54:23;7.90;99.90
9800;DHT22;4939;52.00085300;4.17406100;2023-02-04T00:56:49;7.90;99.90
9800;DHT22;4939;52.00085300;4.17406100;2023-02-04T00:59:15;7.90;99.90
9800;DHT22;4939;52.00085300;4.17406100;2023-02-04T01:01:41;7.90;99.90
9800;DHT22;4939;52.00085300;4.17406100;2023-02-04T01:04:07;7.90;99.90
9800;DHT22;4939;52.00085300;4.17406100;2023-02-04T01:06:33;7.90;99.90
9800;DHT22;4939;52.00085300;4.17406100;2023-02-04T01:08:59;7.90;99.90
9800;DHT22;4939;52.00085300;4.17406100;2023-02-04T01:11:26;7.90;99.90
9800;DHT22;4939;52.00085300;4.17406100;2023-02-04T01:13:52;7.90;99.90
9800;DHT22;4939;52.00085300;4.17406100;2023-02-04T01:16:18;7.90;99.90
9800;DHT22;4939;52.00085300;4.17406100;2023-02-04T01:18:44;7.80;99.90
9800;DHT22;4939;52.00085300;4.17406100;2023-02-04T01:21:09;7.80;99.90
9800;DHT22;4939;52.00085300;4.17406100;2023-02-04T01:23:35;7.80;99.90
9800;DHT22;4939;52.00085300;4.17406100;2023-02-04T01:26:01;7.80;99.90
9800;DHT22;4939;52.00085300;4.17406100;2023-02-04T01:28:27;7.80;99.90
9800;DHT22;4939;52.00085300;4.17406100;2023-02-04T01:30:53;7.80;99.90
9800;DHT22;4939;52.00085300;4.17406100;2023-02-04T01:33:18;7.80;99.90
9800;DHT22;4939;52.00085300;4.17406100;2023-02-04T01:35:44;7.80;99.90
9800;DHT22;4939;52.00085300;4.17406100;2023-02-04T01:38:10;7.80;99.90
9800;DHT22;4939;52.00085300;4.17406100;2023-02-04T01:40:35;7.80;99.90
9800;DHT22;4939;52.00085300;4.17406100;2023-02-04T01:43:01;7.80;99.90
9800;DHT22;4939;52.00085300;4.17406100;2023-02-04T01:45:27;7.80;99.90
9800;DHT22;4939;52.00085300;4.17406100;2023-02-04T01:47:55;7.80;99.90
9800;DHT22;4939;52.00085300;4.17406100;2023-02-04T01:50:21;7.70;99.90
9800;DHT22;4939;52.00085300;4.17406100;2023-02-04T01:52:47;7.70;99.90
9800;DHT22;4939;52.00085300;4.17406100;2023-02-04T01:55:31;7.70;99.90
9800;DHT22;4939;52.00085300;4.17406100;2023-02-04T01:57:57;7.70;99.90
9800;DHT22;4939;52.00085300;4.17406100;2023-02-04T02:00:27;7.80;99.90
9800;DHT22;4939;52.00085300;4.17406100;2023-02-04T02:02:53;7.70;99.90
9800;DHT22;4939;52.00085300;4.17406100;2023-02-04T02:05:26;7.70;99.90
9800;DHT22;4939;52.00085300;4.17406100;2023-02-04T02:07:55;7.70;99.90
9800;DHT22;4939;52.00085300;4.17406100;2023-02-04T02:10:21;7.80;99.90
9800;DHT22;4939;52.00085300;4.17406100;2023-02-04T02:12:48;7.70;99.90
9800;DHT22;4939;52.00085300;4.17406100;2023-02-04T02:15:15;7.70;99.90
9800;DHT22;4939;52.00085300;4.17406100;2023-02-04T02:17:41;7.70;99.90
9800;DHT22;4939;52.00085300;4.17406100;2023-02-04T02:20:10;7.70;99.90
9800;DHT22;4939;52.00085300;4.17406100;2023-02-04T02:25:13;7.70;99.90
9800;DHT22;4939;52.00085300;4.17406100;2023-02-04T02:27:39;7.80;99.90
9800;DHT22;4939;52.00085300;4.17406100;2023-02-04T02:30:08;7.80;99.90
9800;DHT22;4939;52.00085300;4.17406100;2023-02-04T02:32:35;7.80;99.90
9800;DHT22;4939;52.00085300;4.17406100;2023-02-04T02:35:01;7.80;99.90
9800;DHT22;4939;52.00085300;4.17406100;2023-02-04T02:37:27;7.80;99.90
9800;DHT22;4939;52.00085300;4.17406100;2023-02-04T02:39:54;7.80;99.90
9800;DHT22;4939;52.00085300;4.17406100;2023-02-04T02:42:20;7.80;99.90
9800;DHT22;4939;52.00085300;4.17406100;2023-02-04T02:44:46;7.80;99.90
9800;DHT22;4939;52.00085300;4.17406100;2023-02-04T02:47:14;7.80;99.90
9800;DHT22;4939;52.00085300;4.17406100;2023-02-04T02:49:40;7.90;99.90
9800;DHT22;4939;52.00085300;4.17406100;2023-02-04T02:52:11;7.80;99.90
9800;DHT22;4939;52.00085300;4.17406100;2023-02-04T02:54:37;7.80;99.90
9800;DHT22;4939;52.00085300;4.17406100;2023-02-04T02:57:10;7.80;99.90
9800;DHT22;4939;52.00085300;4.17406100;2023-02-04T02:59:36;7.80;99.90
9800;DHT22;4939;52.00085300;4.17406100;2023-02-04T03:02:02;7.80;99.90
9800;DHT22;4939;52.00085300;4.17406100;2023-02-04T03:04:31;7.80;99.90
9800;DHT22;4939;52.00085300;4.17406100;2023-02-04T03:06:59;7.80;99.90
9800;DHT22;4939;52.00085300;4.17406100;2023-02-04T03:09:26;7.80;99.90
9800;DHT22;4939;52.00085300;4.17406100;2023-02-04T03:11:52;7.80;99.90
9800;DHT22;4939;52.00085300;4.17406100;2023-02-04T03:14:18;7.80;99.90
9800;DHT22;4939;52.00085300;4.17406100;2023-02-04T03:16:44;7.80;99.90
9800;DHT22;4939;52.00085300;4.17406100;2023-02-04T03:19:11;7.80;99.90
9800;DHT22;4939;52.00085300;4.17406100;2023-02-04T03:21:37;7.80;99.90
9800;DHT22;4939;52.00085300;4.17406100;2023-02-04T03:24:03;7.80;99.90
9800;DHT22;4939;52.00085300;4.17406100;2023-02-04T03:26:29;7.80;99.90
9800;DHT22;4939;52.00085300;4.17406100;2023-02-04T03:28:55;7.70;99.90
9800;DHT22;4939;52.00085300;4.17406100;2023-02-04T03:31:21;7.70;99.90
9800;DHT22;4939;52.00085300;4.17406100;2023-02-04T03:33:47;7.70;99.90
9800;DHT22;4939;52.00085300;4.17406100;2023-02-04T03:36:12;7.70;99.90
9800;DHT22;4939;52.00085300;4.17406100;2023-02-04T03:38:38;7.70;99.90
9800;DHT22;4939;52.00085300;4.17406100;2023-02-04T03:41:04;7.70;99.90
9800;DHT22;4939;52.00085300;4.17406100;2023-02-04T03:43:30;7.70;99.90
9800;DHT22;4939;52.00085300;4.17406100;2023-02-04T03:45:55;7.70;99.90
9800;DHT22;4939;52.00085300;4.17406100;2023-02-04T03:48:21;7.80;99.90
9800;DHT22;4939;52.00085300;4.17406100;2023-02-04T03:50:47;7.80;99.90
9800;DHT22;4939;52.00085300;4.17406100;2023-02-04T03:53:12;7.80;99.90
9800;DHT22;4939;52.00085300;4.17406100;2023-02-04T03:55:38;7.80;99.90
9800;DHT22;4939;52.00085300;4.17406100;2023-02-04T03:58:04;7.80;99.90
9800;DHT22;4939;52.00085300;4.17406100;2023-02-04T04:00:30;7.80;99.90
9800;DHT22;4939;52.00085300;4.17406100;2023-02-04T04:02:57;7.80;99.90
9800;DHT22;4939;52.00085300;4.17406100;2023-02-04T04:05:23;7.80;99.90
9800;DHT22;4939;52.00085300;4.17406100;2023-02-04T04:07:49;7.80;99.90
9800;DHT22;4939;52.00085300;4.17406100;2023-02-04T04:10:15;9.50;99.90
9800;DHT22;4939;52.00085300;4.17406100;2023-02-04T04:12:40;7.80;99.90
9800;DHT22;4939;52.00085300;4.17406100;2023-02-04T04:15:06;7.80;99.90
9800;DHT22;4939;52.00085300;4.17406100;2023-02-04T04:17:32;7.70;99.90
9800;DHT22;4939;52.00085300;4.17406100;2023-02-04T04:19:58;7.70;99.90
9800;DHT22;4939;52.00085300;4.17406100;2023-02-04T04:22:24;7.70;99.90
9800;DHT22;4939;52.00085300;4.17406100;2023-02-04T04:24:49;7.70;99.90
9800;DHT22;4939;52.00085300;4.17406100;2023-02-04T04:27:15;7.70;99.90
9800;DHT22;4939;52.00085300;4.17406100;2023-02-04T04:29:41;7.70;99.90
9800;DHT22;4939;52.00085300;4.17406100;2023-02-04T04:32:06;7.70;99.90
9800;DHT22;4939;52.00085300;4.17406100;2023-02-04T04:34:34;7.70;99.90
9800;DHT22;4939;52.00085300;4.17406100;2023-02-04T04:36:59;7.80;99.90
9800;DHT22;4939;52.00085300;4.17406100;2023-02-04T04:39:25;7.80;99.90
9800;DHT22;4939;52.00085300;4.17406100;2023-02-04T04:41:51;7.80;99.90
9800;DHT22;4939;52.00085300;4.17406100;2023-02-04T04:44:16;7.80;99.90
9800;DHT22;4939;52.00085300;4.17406100;2023-02-04T04:46:42;7.80;99.90
9800;DHT22;4939;52.00085300;4.17406100;2023-02-04T04:49:08;7.80;99.90
9800;DHT22;4939;52.00085300;4.17406100;2023-02-04T04:51:33;7.80;99.90
9800;DHT22;4939;52.00085300;4.17406100;2023-02-04T04:53:59;7.80;99.90
9800;DHT22;4939;52.00085300;4.17406100;2023-02-04T04:56:25;7.80;99.90
9800;DHT22;4939;52.00085300;4.17406100;2023-02-04T04:58:51;7.80;99.90
9800;DHT22;4939;52.00085300;4.17406100;2023-02-04T05:01:16;7.80;99.90
9800;DHT22;4939;52.00085300;4.17406100;2023-02-04T05:03:42;7.80;99.90
9800;DHT22;4939;52.00085300;4.17406100;2023-02-04T05:06:08;7.70;99.90
9800;DHT22;4939;52.00085300;4.17406100;2023-02-04T05:08:35;7.70;99.90
9800;DHT22;4939;52.00085300;4.17406100;2023-02-04T05:11:02;7.70;99.90
9800;DHT22;4939;52.00085300;4.17406100;2023-02-04T05:13:28;7.70;99.90
9800;DHT22;4939;52.00085300;4.17406100;2023-02-04T05:15:53;7.70;99.90
9800;DHT22;4939;52.00085300;4.17406100;2023-02-04T05:18:19;7.70;99.90
9800;DHT22;4939;52.00085300;4.17406100;2023-02-04T05:20:45;7.70;99.90
9800;DHT22;4939;52.00085300;4.17406100;2023-02-04T05:23:10;7.70;99.90
9800;DHT22;4939;52.00085300;4.17406100;2023-02-04T05:25:36;7.70;99.90
9800;DHT22;4939;52.00085300;4.17406100;2023-02-04T05:28:02;7.80;99.90
9800;DHT22;4939;52.00085300;4.17406100;2023-02-04T05:30:28;7.80;99.90
9800;DHT22;4939;52.00085300;4.17406100;2023-02-04T05:32:53;7.80;99.90
9800;DHT22;4939;52.00085300;4.17406100;2023-02-04T05:35:19;7.80;99.90
9800;DHT22;4939;52.00085300;4.17406100;2023-02-04T05:37:45;7.80;99.90
9800;DHT22;4939;52.00085300;4.17406100;2023-02-04T05:40:12;7.80;99.90
9800;DHT22;4939;52.00085300;4.17406100;2023-02-04T05:42:37;7.70;99.90
9800;DHT22;4939;52.00085300;4.17406100;2023-02-04T05:45:03;7.70;99.90
9800;DHT22;4939;52.00085300;4.17406100;2023-02-04T05:47:29;7.70;99.90
9800;DHT22;4939;52.00085300;4.17406100;2023-02-04T05:49:55;7.70;99.90
9800;DHT22;4939;52.00085300;4.17406100;2023-02-04T05:52:21;7.70;99.90
9800;DHT22;4939;52.00085300;4.17406100;2023-02-04T05:54:46;7.70;99.90
9800;DHT22;4939;52.00085300;4.17406100;2023-02-04T05:57:12;7.70;99.90
9800;DHT22;4939;52.00085300;4.17406100;2023-02-04T05:59:38;7.70;99.90
9800;DHT22;4939;52.00085300;4.17406100;2023-02-04T06:02:03;7.70;99.90
9800;DHT22;4939;52.00085300;4.17406100;2023-02-04T06:04:29;7.70;99.90
9800;DHT22;4939;52.00085300;4.17406100;2023-02-04T06:06:54;7.70;99.90
9800;DHT22;4939;52.00085300;4.17406100;2023-02-04T06:09:20;7.70;99.90
9800;DHT22;4939;52.00085300;4.17406100;2023-02-04T06:11:46;7.70;99.90
9800;DHT22;4939;52.00085300;4.17406100;2023-02-04T06:14:11;7.70;99.90
9800;DHT22;4939;52.00085300;4.17406100;2023-02-04T06:16:37;7.70;99.90
9800;DHT22;4939;52.00085300;4.17406100;2023-02-04T06:19:02;7.70;99.90
9800;DHT22;4939;52.00085300;4.17406100;2023-02-04T06:21:28;7.60;99.90
9800;DHT22;4939;52.00085300;4.17406100;2023-02-04T06:23:54;7.60;99.90
9800;DHT22;4939;52.00085300;4.17406100;2023-02-04T06:26:19;7.60;99.90
9800;DHT22;4939;52.00085300;4.17406100;2023-02-04T06:28:45;7.70;99.90
9800;DHT22;4939;52.00085300;4.17406100;2023-02-04T06:31:11;7.70;99.90
9800;DHT22;4939;52.00085300;4.17406100;2023-02-04T06:33:36;7.70;99.90
9800;DHT22;4939;52.00085300;4.17406100;2023-02-04T06:36:03;7.70;99.90
9800;DHT22;4939;52.00085300;4.17406100;2023-02-04T06:38:29;7.60;99.90
9800;DHT22;4939;52.00085300;4.17406100;2023-02-04T06:40:54;7.60;99.90
9800;DHT22;4939;52.00085300;4.17406100;2023-02-04T06:43:20;7.60;99.90
9800;DHT22;4939;52.00085300;4.17406100;2023-02-04T06:45:48;7.60;99.90
9800;DHT22;4939;52.00085300;4.17406100;2023-02-04T06:48:15;7.60;99.90
9800;DHT22;4939;52.00085300;4.17406100;2023-02-04T06:50:41;7.60;99.90
9800;DHT22;4939;52.00085300;4.17406100;2023-02-04T06:53:06;7.60;99.90
9800;DHT22;4939;52.00085300;4.17406100;2023-02-04T06:55:32;7.60;99.90
9800;DHT22;4939;52.00085300;4.17406100;2023-02-04T06:57:57;7.60;99.90
9800;DHT22;4939;52.00085300;4.17406100;2023-02-04T07:00:23;7.60;99.90
9800;DHT22;4939;52.00085300;4.17406100;2023-02-04T07:02:49;7.60;99.90
9800;DHT22;4939;52.00085300;4.17406100;2023-02-04T07:05:15;7.60;99.90
9800;DHT22;4939;52.00085300;4.17406100;2023-02-04T07:07:40;7.60;99.90
9800;DHT22;4939;52.00085300;4.17406100;2023-02-04T07:10:06;7.60;99.90
9800;DHT22;4939;52.00085300;4.17406100;2023-02-04T07:12:32;7.50;99.90
9800;DHT22;4939;52.00085300;4.17406100;2023-02-04T07:14:57;7.50;99.90
9800;DHT22;4939;52.00085300;4.17406100;2023-02-04T07:17:23;7.60;99.90
9800;DHT22;4939;52.00085300;4.17406100;2023-02-04T07:19:49;7.60;99.90
9800;DHT22;4939;52.00085300;4.17406100;2023-02-04T07:22:14;7.50;99.90
9800;DHT22;4939;52.00085300;4.17406100;2023-02-04T07:24:40;7.60;99.90
9800;DHT22;4939;52.00085300;4.17406100;2023-02-04T07:27:06;7.60;99.90
9800;DHT22;4939;52.00085300;4.17406100;2023-02-04T07:29:31;7.60;99.90
9800;DHT22;4939;52.00085300;4.17406100;2023-02-04T07:31:57;7.60;99.90
9800;DHT22;4939;52.00085300;4.17406100;2023-02-04T07:34:23;7.60;99.90
9800;DHT22;4939;52.00085300;4.17406100;2023-02-04T07:36:48;7.60;99.90
9800;DHT22;4939;52.00085300;4.17406100;2023-02-04T07:39:14;7.50;99.90
9800;DHT22;4939;52.00085300;4.17406100;2023-02-04T07:41:40;7.50;99.90
9800;DHT22;4939;52.00085300;4.17406100;2023-02-04T07:44:05;7.60;99.90
9800;DHT22;4939;52.00085300;4.17406100;2023-02-04T07:46:31;7.60;99.90
9800;DHT22;4939;52.00085300;4.17406100;2023-02-04T07:48:57;7.70;99.90
9800;DHT22;4939;52.00085300;4.17406100;2023-02-04T07:51:22;7.80;99.90
9800;DHT22;4939;52.00085300;4.17406100;2023-02-04T07:53:48;7.80;99.90
9800;DHT22;4939;52.00085300;4.17406100;2023-02-04T07:56:14;7.80;99.90
9800;DHT22;4939;52.00085300;4.17406100;2023-02-04T07:58:39;7.80;99.90
9800;DHT22;4939;52.00085300;4.17406100;2023-02-04T08:01:05;7.80;99.90
9800;DHT22;4939;52.00085300;4.17406100;2023-02-04T08:03:31;7.80;99.90
9800;DHT22;4939;52.00085300;4.17406100;2023-02-04T08:05:56;7.80;99.90
9800;DHT22;4939;52.00085300;4.17406100;2023-02-04T08:08:22;7.80;99.90
9800;DHT22;4939;52.00085300;4.17406100;2023-02-04T08:10:48;7.80;99.90
9800;DHT22;4939;52.00085300;4.17406100;2023-02-04T08:13:13;7.80;99.90
9800;DHT22;4939;52.00085300;4.17406100;2023-02-04T08:15:39;7.80;99.90
9800;DHT22;4939;52.00085300;4.17406100;2023-02-04T08:18:05;7.80;99.90
9800;DHT22;4939;52.00085300;4.17406100;2023-02-04T08:20:30;7.70;99.90
9800;DHT22;4939;52.00085300;4.17406100;2023-02-04T08:22:56;7.80;99.90
9800;DHT22;4939;52.00085300;4.17406100;2023-02-04T08:25:22;7.80;99.90
9800;DHT22;4939;52.00085300;4.17406100;2023-02-04T08:27:48;7.80;99.90
9800;DHT22;4939;52.00085300;4.17406100;2023-02-04T08:30:13;7.90;99.90
9800;DHT22;4939;52.00085300;4.17406100;2023-02-04T08:32:39;7.90;99.90
9800;DHT22;4939;52.00085300;4.17406100;2023-02-04T08:35:06;7.90;99.90
9800;DHT22;4939;52.00085300;4.17406100;2023-02-04T08:37:31;7.90;99.90
9800;DHT22;4939;52.00085300;4.17406100;2023-02-04T08:39:57;8.00;99.90
9800;DHT22;4939;52.00085300;4.17406100;2023-02-04T08:42:23;7.90;99.90
9800;DHT22;4939;52.00085300;4.17406100;2023-02-04T08:44:48;8.00;99.90
9800;DHT22;4939;52.00085300;4.17406100;2023-02-04T08:47:14;8.00;99.90
9800;DHT22;4939;52.00085300;4.17406100;2023-02-04T08:49:39;8.00;99.90
9800;DHT22;4939;52.00085300;4.17406100;2023-02-04T08:52:06;8.10;99.90
9800;DHT22;4939;52.00085300;4.17406100;2023-02-04T08:54:33;8.10;99.90
9800;DHT22;4939;52.00085300;4.17406100;2023-02-04T08:56:59;8.10;99.90
9800;DHT22;4939;52.00085300;4.17406100;2023-02-04T08:59:25;8.10;99.90
9800;DHT22;4939;52.00085300;4.17406100;2023-02-04T09:01:51;8.10;99.90
9800;DHT22;4939;52.00085300;4.17406100;2023-02-04T09:04:21;8.10;99.90
9800;DHT22;4939;52.00085300;4.17406100;2023-02-04T09:06:48;8.10;99.90
9800;DHT22;4939;52.00085300;4.17406100;2023-02-04T09:09:14;8.10;99.90
9800;DHT22;4939;52.00085300;4.17406100;2023-02-04T09:11:40;8.10;99.90
9800;DHT22;4939;52.00085300;4.17406100;2023-02-04T09:14:06;8.20;99.90
9800;DHT22;4939;52.00085300;4.17406100;2023-02-04T09:16:32;8.20;99.90
9800;DHT22;4939;52.00085300;4.17406100;2023-02-04T09:18:58;8.20;99.90
9800;DHT22;4939;52.00085300;4.17406100;2023-02-04T09:21:24;8.30;99.90
9800;DHT22;4939;52.00085300;4.17406100;2023-02-04T09:23:50;8.30;99.90
9800;DHT22;4939;52.00085300;4.17406100;2023-02-04T09:26:15;8.30;99.90
9800;DHT22;4939;52.00085300;4.17406100;2023-02-04T09:28:41;8.30;99.90
9800;DHT22;4939;52.00085300;4.17406100;2023-02-04T09:31:07;8.30;99.90
9800;DHT22;4939;52.00085300;4.17406100;2023-02-04T09:33:33;8.30;99.90
9800;DHT22;4939;52.00085300;4.17406100;2023-02-04T09:35:59;8.30;99.90
9800;DHT22;4939;52.00085300;4.17406100;2023-02-04T09:38:24;8.30;99.90
9800;DHT22;4939;52.00085300;4.17406100;2023-02-04T09:40:56;8.30;99.90
9800;DHT22;4939;52.00085300;4.17406100;2023-02-04T09:43:25;8.30;99.90
9800;DHT22;4939;52.00085300;4.17406100;2023-02-04T09:45:52;8.40;99.90
9800;DHT22;4939;52.00085300;4.17406100;2023-02-04T09:48:18;8.40;99.90
9800;DHT22;4939;52.00085300;4.17406100;2023-02-04T09:50:45;8.40;99.90
9800;DHT22;4939;52.00085300;4.17406100;2023-02-04T09:53:18;8.40;99.90
9800;DHT22;4939;52.00085300;4.17406100;2023-02-04T09:55:46;8.40;99.90
9800;DHT22;4939;52.00085300;4.17406100;2023-02-04T09:58:17;8.40;99.90
9800;DHT22;4939;52.00085300;4.17406100;2023-02-04T10:00:44;8.40;99.90
9800;DHT22;4939;52.00085300;4.17406100;2023-02-04T10:03:18;8.40;99.90
9800;DHT22;4939;52.00085300;4.17406100;2023-02-04T10:05:46;8.40;99.90
9800;DHT22;4939;52.00085300;4.17406100;2023-02-04T10:08:21;8.40;99.90
9800;DHT22;4939;52.00085300;4.17406100;2023-02-04T10:10:48;8.40;99.90
9800;DHT22;4939;52.00085300;4.17406100;2023-02-04T10:13:19;8.40;99.90
9800;DHT22;4939;52.00085300;4.17406100;2023-02-04T10:15:46;8.40;99.90
9800;DHT22;4939;52.00085300;4.17406100;2023-02-04T10:18:21;8.40;99.90
9800;DHT22;4939;52.00085300;4.17406100;2023-02-04T10:20:49;8.40;99.90
9800;DHT22;4939;52.00085300;4.17406100;2023-02-04T10:23:15;8.40;99.90
9800;DHT22;4939;52.00085300;4.17406100;2023-02-04T10:25:40;8.40;99.90
9800;DHT22;4939;52.00085300;4.17406100;2023-02-04T10:28:06;8.40;99.90
9800;DHT22;4939;52.00085300;4.17406100;2023-02-04T10:30:38;8.40;99.90
9800;DHT22;4939;52.00085300;4.17406100;2023-02-04T10:33:14;8.40;99.90
9800;DHT22;4939;52.00085300;4.17406100;2023-02-04T10:35:46;8.40;99.90
9800;DHT22;4939;52.00085300;4.17406100;2023-02-04T10:38:11;8.40;99.90
9800;DHT22;4939;52.00085300;4.17406100;2023-02-04T10:40:37;8.50;99.90
9800;DHT22;4939;52.00085300;4.17406100;2023-02-04T10:43:14;8.50;99.90
9800;DHT22;4939;52.00085300;4.17406100;2023-02-04T10:45:45;8.50;99.90
9800;DHT22;4939;52.00085300;4.17406100;2023-02-04T10:48:18;8.50;99.90
9800;DHT22;4939;52.00085300;4.17406100;2023-02-04T10:50:48;8.50;99.90
9800;DHT22;4939;52.00085300;4.17406100;2023-02-04T10:53:23;8.60;99.90
9800;DHT22;4939;52.00085300;4.17406100;2023-02-04T10:56:17;8.60;99.90
9800;DHT22;4939;52.00085300;4.17406100;2023-02-04T10:58:45;8.60;99.90
9800;DHT22;4939;52.00085300;4.17406100;2023-02-04T11:01:14;8.60;99.90
9800;DHT22;4939;52.00085300;4.17406100;2023-02-04T11:03:41;8.60;99.90
9800;DHT22;4939;52.00085300;4.17406100;2023-02-04T11:06:16;8.60;99.90
9800;DHT22;4939;52.00085300;4.17406100;2023-02-04T11:08:44;8.60;99.90
9800;DHT22;4939;52.00085300;4.17406100;2023-02-04T11:11:26;8.60;99.90
9800;DHT22;4939;52.00085300;4.17406100;2023-02-04T11:19:00;8.70;99.90
9800;DHT22;4939;52.00085300;4.17406100;2023-02-04T11:21:42;8.80;99.90
9800;DHT22;4939;52.00085300;4.17406100;2023-02-04T11:31:42;8.60;99.90
9800;DHT22;4939;52.00085300;4.17406100;2023-02-04T11:39:42;8.70;99.90
9800;DHT22;4939;52.00085300;4.17406100;2023-02-04T11:42:31;8.70;99.90
9800;DHT22;4939;52.00085300;4.17406100;2023-02-04T11:45:24;8.70;99.90
9800;DHT22;4939;52.00085300;4.17406100;2023-02-04T11:47:50;8.70;99.90
9800;DHT22;4939;52.00085300;4.17406100;2023-02-04T11:50:23;8.70;99.90
9800;DHT22;4939;52.00085300;4.17406100;2023-02-04T11:52:50;8.70;99.90
9800;DHT22;4939;52.00085300;4.17406100;2023-02-04T11:55:15;8.90;99.90
9800;DHT22;4939;52.00085300;4.17406100;2023-02-04T11:57:44;8.70;99.90
9800;DHT22;4939;52.00085300;4.17406100;2023-02-04T12:00:18;8.70;99.90
9800;DHT22;4939;52.00085300;4.17406100;2023-02-04T12:02:50;8.70;99.90
9800;DHT22;4939;52.00085300;4.17406100;2023-02-04T12:05:19;8.60;99.90
9800;DHT22;4939;52.00085300;4.17406100;2023-02-04T12:07:47;8.60;99.90
9800;DHT22;4939;52.00085300;4.17406100;2023-02-04T12:10:22;8.60;99.90
9800;DHT22;4939;52.00085300;4.17406100;2023-02-04T12:12:52;8.60;99.90
9800;DHT22;4939;52.00085300;4.17406100;2023-02-04T12:15:22;8.60;99.90
9800;DHT22;4939;52.00085300;4.17406100;2023-02-04T12:18:05;8.60;99.90
9800;DHT22;4939;52.00085300;4.17406100;2023-02-04T12:20:37;8.60;99.90
9800;DHT22;4939;52.00085300;4.17406100;2023-02-04T12:23:03;8.60;99.90
9800;DHT22;4939;52.00085300;4.17406100;2023-02-04T12:25:29;8.60;99.90
9800;DHT22;4939;52.00085300;4.17406100;2023-02-04T12:27:55;8.60;99.90
9800;DHT22;4939;52.00085300;4.17406100;2023-02-04T12:30:22;8.60;99.90
9800;DHT22;4939;52.00085300;4.17406100;2023-02-04T12:32:48;8.60;99.90
9800;DHT22;4939;52.00085300;4.17406100;2023-02-04T12:35:14;8.60;99.90
9800;DHT22;4939;52.00085300;4.17406100;2023-02-04T12:37:40;8.50;99.90
9800;DHT22;4939;52.00085300;4.17406100;2023-02-04T12:40:06;8.60;99.90
9800;DHT22;4939;52.00085300;4.17406100;2023-02-04T12:42:32;8.50;99.90
9800;DHT22;4939;52.00085300;4.17406100;2023-02-04T12:44:57;8.50;99.90
9800;DHT22;4939;52.00085300;4.17406100;2023-02-04T12:47:23;8.50;99.90
9800;DHT22;4939;52.00085300;4.17406100;2023-02-04T12:49:49;8.60;99.90
9800;DHT22;4939;52.00085300;4.17406100;2023-02-04T12:52:15;8.60;99.90
9800;DHT22;4939;52.00085300;4.17406100;2023-02-04T12:54:41;8.70;99.90
9800;DHT22;4939;52.00085300;4.17406100;2023-02-04T12:57:08;8.80;99.90
9800;DHT22;4939;52.00085300;4.17406100;2023-02-04T12:59:35;8.70;99.90
9800;DHT22;4939;52.00085300;4.17406100;2023-02-04T13:02:00;8.90;99.90
9800;DHT22;4939;52.00085300;4.17406100;2023-02-04T13:04:26;8.90;99.90
9800;DHT22;4939;52.00085300;4.17406100;2023-02-04T13:06:52;9.00;99.90
9800;DHT22;4939;52.00085300;4.17406100;2023-02-04T13:09:17;9.10;99.90
9800;DHT22;4939;52.00085300;4.17406100;2023-02-04T13:11:43;9.00;99.90
9800;DHT22;4939;52.00085300;4.17406100;2023-02-04T13:14:08;8.90;99.90
9800;DHT22;4939;52.00085300;4.17406100;2023-02-04T13:16:34;9.00;99.90
9800;DHT22;4939;52.00085300;4.17406100;2023-02-04T13:19:00;9.00;99.90
9800;DHT22;4939;52.00085300;4.17406100;2023-02-04T13:21:25;9.10;99.90
9800;DHT22;4939;52.00085300;4.17406100;2023-02-04T13:23:51;9.10;99.90
9800;DHT22;4939;52.00085300;4.17406100;2023-02-04T13:26:16;9.10;99.90
9800;DHT22;4939;52.00085300;4.17406100;2023-02-04T13:28:42;9.10;99.90
9800;DHT22;4939;52.00085300;4.17406100;2023-02-04T13:31:08;9.10;99.90
9800;DHT22;4939;52.00085300;4.17406100;2023-02-04T13:33:33;9.10;99.90
9800;DHT22;4939;52.00085300;4.17406100;2023-02-04T13:36:01;9.20;99.90
9800;DHT22;4939;52.00085300;4.17406100;2023-02-04T13:38:27;9.10;99.90
9800;DHT22;4939;52.00085300;4.17406100;2023-02-04T13:40:53;9.10;99.90
9800;DHT22;4939;52.00085300;4.17406100;2023-02-04T13:43:19;9.10;99.90
9800;DHT22;4939;52.00085300;4.17406100;2023-02-04T13:45:45;9.10;99.90
9800;DHT22;4939;52.00085300;4.17406100;2023-02-04T13:48:13;9.10;99.90
9800;DHT22;4939;52.00085300;4.17406100;2023-02-04T13:50:39;9.20;99.90
9800;DHT22;4939;52.00085300;4.17406100;2023-02-04T13:53:05;9.10;99.90
9800;DHT22;4939;52.00085300;4.17406100;2023-02-04T13:55:31;9.10;99.90
9800;DHT22;4939;52.00085300;4.17406100;2023-02-04T13:57:56;9.10;99.90
9800;DHT22;4939;52.00085300;4.17406100;2023-02-04T14:00:22;9.10;99.90
9800;DHT22;4939;52.00085300;4.17406100;2023-02-04T14:02:47;9.20;99.90
9800;DHT22;4939;52.00085300;4.17406100;2023-02-04T14:05:14;9.20;99.90
9800;DHT22;4939;52.00085300;4.17406100;2023-02-04T14:07:40;9.20;99.90
9800;DHT22;4939;52.00085300;4.17406100;2023-02-04T14:10:06;9.20;99.90
9800;DHT22;4939;52.00085300;4.17406100;2023-02-04T14:12:32;9.20;99.90
9800;DHT22;4939;52.00085300;4.17406100;2023-02-04T14:14:57;9.30;99.90